sensor_id;sensor_type;location;lat;lon;timestamp;P1;durP1;ratioP1;P2;durP2;ratioP2
22363;SDS011;11349;53.412;-1.328;2022-11-20T00:00:37;43.38;;;24.33;;
22363;SDS011;11349;53.412;-1.328;2022-11-20T00:03:03;42.20;;;24.88;;
22363;SDS011;11349;53.412;-1.328;2022-11-20T00:05:31;42.65;;;23.08;;
22363;SDS011;11349;53.412;-1.328;2022-11-20T00:07:57;38.47;;;23.58;;
22363;SDS011;11349;53.412;-1.328;2022-11-20T00:10:23;42.28;;;22.02;;
22363;SDS011;11349;53.412;-1.328;2022-11-20T00:12:49;45.67;;;21.67;;
22363;SDS011;11349;53.412;-1.328;2022-11-20T00:15:17;37.65;;;21.67;;
22363;SDS011;11349;53.412;-1.328;2022-11-20T00:17:43;45.80;;;23.60;;
22363;SDS011;11349;53.412;-1.328;2022-11-20T00:20:09;41.10;;;22.02;;
22363;SDS011;11349;53.412;-1.328;2022-11-20T00:22:35;36.17;;;21.80;;
22363;SDS011;11349;53.412;-1.328;2022-11-20T00:25:01;36.70;;;20.95;;
22363;SDS011;11349;53.412;-1.328;2022-11-20T00:27:27;40.75;;;23.85;;
22363;SDS011;11349;53.412;-1.328;2022-11-20T00:29:53;40.85;;;21.92;;
22363;SDS011;11349;53.412;-1.328;2022-11-20T00:32:18;34.97;;;20.52;;
22363;SDS011;11349;53.412;-1.328;2022-11-20T00:34:44;38.60;;;21.70;;
22363;SDS011;11349;53.412;-1.328;2022-11-20T00:37:10;40.30;;;23.20;;
22363;SDS011;11349;53.412;-1.328;2022-11-20T00:39:35;38.55;;;21.48;;
22363;SDS011;11349;53.412;-1.328;2022-11-20T00:42:01;37.25;;;21.75;;
22363;SDS011;11349;53.412;-1.328;2022-11-20T00:44:27;38.38;;;22.20;;
22363;SDS011;11349;53.412;-1.328;2022-11-20T00:46:52;36.42;;;21.52;;
22363;SDS011;11349;53.412;-1.328;2022-11-20T00:49:18;40.75;;;22.55;;
22363;SDS011;11349;53.412;-1.328;2022-11-20T00:51:44;38.03;;;20.90;;
22363;SDS011;11349;53.412;-1.328;2022-11-20T00:54:09;42.70;;;21.65;;
22363;SDS011;11349;53.412;-1.328;2022-11-20T00:56:35;36.08;;;21.48;;
22363;SDS011;11349;53.412;-1.328;2022-11-20T00:59:01;40.58;;;20.52;;
22363;SDS011;11349;53.412;-1.328;2022-11-20T01:01:27;44.60;;;22.17;;
22363;SDS011;11349;53.412;-1.328;2022-11-20T01:03:55;36.55;;;22.42;;
22363;SDS011;11349;53.412;-1.328;2022-11-20T01:06:26;37.83;;;20.33;;
22363;SDS011;11349;53.412;-1.328;2022-11-20T01:08:55;36.28;;;20.88;;
22363;SDS011;11349;53.412;-1.328;2022-11-20T01:11:23;38.03;;;20.58;;
22363;SDS011;11349;53.412;-1.328;2022-11-20T01:13:51;40.63;;;19.77;;
22363;SDS011;11349;53.412;-1.328;2022-11-20T01:16:22;39.10;;;19.23;;
22363;SDS011;11349;53.412;-1.328;2022-11-20T01:18:50;40.92;;;23.05;;
22363;SDS011;11349;53.412;-1.328;2022-11-20T01:21:19;38.97;;;20.75;;
22363;SDS011;11349;53.412;-1.328;2022-11-20T01:23:47;33.90;;;18.50;;
22363;SDS011;11349;53.412;-1.328;2022-11-20T01:26:14;41.42;;;21.33;;
22363;SDS011;11349;53.412;-1.328;2022-11-20T01:28:43;34.00;;;19.38;;
22363;SDS011;11349;53.412;-1.328;2022-11-20T01:31:12;36.95;;;20.05;;
22363;SDS011;11349;53.412;-1.328;2022-11-20T01:33:40;30.67;;;19.05;;
22363;SDS011;11349;53.412;-1.328;2022-11-20T01:36:07;38.00;;;19.85;;
22363;SDS011;11349;53.412;-1.328;2022-11-20T01:38:34;36.55;;;19.75;;
22363;SDS011;11349;53.412;-1.328;2022-11-20T01:40:59;35.95;;;18.52;;
22363;SDS011;11349;53.412;-1.328;2022-11-20T01:43:25;32.97;;;18.00;;
22363;SDS011;11349;53.412;-1.328;2022-11-20T01:48:51;32.92;;;17.83;;
22363;SDS011;11349;53.412;-1.328;2022-11-20T01:51:24;29.77;;;18.25;;
22363;SDS011;11349;53.412;-1.328;2022-11-20T01:53:58;35.13;;;18.27;;
22363;SDS011;11349;53.412;-1.328;2022-11-20T01:56:29;39.42;;;19.67;;
22363;SDS011;11349;53.412;-1.328;2022-11-20T01:58:59;32.08;;;17.98;;
22363;SDS011;11349;53.412;-1.328;2022-11-20T02:01:29;28.98;;;16.95;;
22363;SDS011;11349;53.412;-1.328;2022-11-20T02:03:55;33.60;;;18.13;;
22363;SDS011;11349;53.412;-1.328;2022-11-20T02:06:23;36.15;;;17.90;;
22363;SDS011;11349;53.412;-1.328;2022-11-20T02:08:54;33.13;;;18.77;;
22363;SDS011;11349;53.412;-1.328;2022-11-20T02:11:20;31.77;;;17.20;;
22363;SDS011;11349;53.412;-1.328;2022-11-20T02:13:46;37.20;;;17.88;;
22363;SDS011;11349;53.412;-1.328;2022-11-20T02:16:15;31.65;;;17.77;;
22363;SDS011;11349;53.412;-1.328;2022-11-20T02:18:53;29.27;;;17.48;;
22363;SDS011;11349;53.412;-1.328;2022-11-20T02:21:23;34.00;;;18.13;;
22363;SDS011;11349;53.412;-1.328;2022-11-20T02:29:34;28.42;;;16.77;;
22363;SDS011;11349;53.412;-1.328;2022-11-20T02:32:17;27.67;;;15.25;;
22363;SDS011;11349;53.412;-1.328;2022-11-20T02:37:43;29.08;;;16.08;;
22363;SDS011;11349;53.412;-1.328;2022-11-20T02:40:11;30.50;;;15.70;;
22363;SDS011;11349;53.412;-1.328;2022-11-20T02:42:37;29.88;;;16.13;;
22363;SDS011;11349;53.412;-1.328;2022-11-20T02:45:04;28.40;;;15.73;;
22363;SDS011;11349;53.412;-1.328;2022-11-20T02:47:30;27.27;;;15.65;;
22363;SDS011;11349;53.412;-1.328;2022-11-20T02:49:56;27.85;;;14.80;;
22363;SDS011;11349;53.412;-1.328;2022-11-20T02:52:22;26.58;;;15.35;;
22363;SDS011;11349;53.412;-1.328;2022-11-20T02:54:48;23.48;;;14.18;;
22363;SDS011;11349;53.412;-1.328;2022-11-20T02:57:14;26.15;;;15.23;;
22363;SDS011;11349;53.412;-1.328;2022-11-20T02:59:40;27.65;;;15.02;;
22363;SDS011;11349;53.412;-1.328;2022-11-20T03:02:05;26.98;;;15.35;;
22363;SDS011;11349;53.412;-1.328;2022-11-20T03:04:31;28.33;;;15.90;;
22363;SDS011;11349;53.412;-1.328;2022-11-20T03:06:57;29.65;;;14.45;;
22363;SDS011;11349;53.412;-1.328;2022-11-20T03:09:22;24.77;;;15.10;;
22363;SDS011;11349;53.412;-1.328;2022-11-20T03:11:48;24.85;;;15.02;;
22363;SDS011;11349;53.412;-1.328;2022-11-20T03:14:14;25.77;;;14.00;;
22363;SDS011;11349;53.412;-1.328;2022-11-20T03:16:40;23.63;;;13.52;;
22363;SDS011;11349;53.412;-1.328;2022-11-20T03:19:05;29.73;;;13.32;;
22363;SDS011;11349;53.412;-1.328;2022-11-20T03:21:34;24.83;;;14.40;;
22363;SDS011;11349;53.412;-1.328;2022-11-20T03:24:00;25.77;;;12.50;;
22363;SDS011;11349;53.412;-1.328;2022-11-20T03:26:27;22.08;;;12.30;;
22363;SDS011;11349;53.412;-1.328;2022-11-20T03:28:57;21.85;;;12.05;;
22363;SDS011;11349;53.412;-1.328;2022-11-20T03:31:28;24.95;;;13.35;;
22363;SDS011;11349;53.412;-1.328;2022-11-20T03:33:56;23.73;;;13.45;;
22363;SDS011;11349;53.412;-1.328;2022-11-20T03:36:23;23.08;;;12.65;;
22363;SDS011;11349;53.412;-1.328;2022-11-20T03:38:49;26.58;;;13.35;;
22363;SDS011;11349;53.412;-1.328;2022-11-20T03:41:19;23.90;;;12.93;;
22363;SDS011;11349;53.412;-1.328;2022-11-20T03:43:47;25.02;;;12.70;;
22363;SDS011;11349;53.412;-1.328;2022-11-20T03:46:20;25.52;;;12.95;;
22363;SDS011;11349;53.412;-1.328;2022-11-20T03:48:46;23.35;;;12.63;;
22363;SDS011;11349;53.412;-1.328;2022-11-20T03:51:16;22.00;;;13.00;;
22363;SDS011;11349;53.412;-1.328;2022-11-20T03:53:48;25.08;;;12.55;;
22363;SDS011;11349;53.412;-1.328;2022-11-20T03:56:16;26.48;;;12.23;;
22363;SDS011;11349;53.412;-1.328;2022-11-20T03:58:43;22.63;;;13.15;;
22363;SDS011;11349;53.412;-1.328;2022-11-20T04:01:10;28.67;;;13.68;;
22363;SDS011;11349;53.412;-1.328;2022-11-20T04:03:38;26.92;;;13.05;;
22363;SDS011;11349;53.412;-1.328;2022-11-20T04:06:06;27.80;;;14.93;;
22363;SDS011;11349;53.412;-1.328;2022-11-20T04:08:38;25.23;;;13.73;;
22363;SDS011;11349;53.412;-1.328;2022-11-20T04:11:14;25.48;;;14.65;;
22363;SDS011;11349;53.412;-1.328;2022-11-20T04:13:42;27.95;;;14.95;;
22363;SDS011;11349;53.412;-1.328;2022-11-20T04:16:11;30.90;;;15.05;;
22363;SDS011;11349;53.412;-1.328;2022-11-20T04:18:37;26.27;;;14.98;;
22363;SDS011;11349;53.412;-1.328;2022-11-20T04:21:03;24.77;;;14.13;;
22363;SDS011;11349;53.412;-1.328;2022-11-20T04:23:30;24.33;;;13.50;;
22363;SDS011;11349;53.412;-1.328;2022-11-20T04:28:28;23.98;;;12.73;;
22363;SDS011;11349;53.412;-1.328;2022-11-20T04:30:54;25.35;;;14.05;;
22363;SDS011;11349;53.412;-1.328;2022-11-20T04:33:19;22.23;;;12.48;;
22363;SDS011;11349;53.412;-1.328;2022-11-20T04:35:45;23.27;;;12.95;;
22363;SDS011;11349;53.412;-1.328;2022-11-20T04:38:12;24.60;;;13.63;;
22363;SDS011;11349;53.412;-1.328;2022-11-20T04:40:38;20.50;;;12.45;;
22363;SDS011;11349;53.412;-1.328;2022-11-20T04:43:04;24.90;;;11.98;;
22363;SDS011;11349;53.412;-1.328;2022-11-20T04:45:29;21.77;;;11.25;;
22363;SDS011;11349;53.412;-1.328;2022-11-20T04:47:55;19.25;;;12.55;;
22363;SDS011;11349;53.412;-1.328;2022-11-20T04:50:21;21.08;;;11.57;;
22363;SDS011;11349;53.412;-1.328;2022-11-20T04:52:46;23.48;;;11.18;;
22363;SDS011;11349;53.412;-1.328;2022-11-20T04:55:12;22.63;;;10.77;;
22363;SDS011;11349;53.412;-1.328;2022-11-20T04:57:38;17.50;;;9.15;;
22363;SDS011;11349;53.412;-1.328;2022-11-20T05:00:04;12.38;;;7.40;;
22363;SDS011;11349;53.412;-1.328;2022-11-20T05:02:30;12.63;;;7.85;;
22363;SDS011;11349;53.412;-1.328;2022-11-20T05:04:57;15.52;;;8.05;;
22363;SDS011;11349;53.412;-1.328;2022-11-20T05:07:22;11.75;;;6.82;;
22363;SDS011;11349;53.412;-1.328;2022-11-20T05:09:48;9.82;;;6.75;;
22363;SDS011;11349;53.412;-1.328;2022-11-20T05:12:14;11.35;;;6.28;;
22363;SDS011;11349;53.412;-1.328;2022-11-20T05:14:39;11.88;;;5.68;;
22363;SDS011;11349;53.412;-1.328;2022-11-20T05:17:05;9.23;;;5.72;;
22363;SDS011;11349;53.412;-1.328;2022-11-20T05:19:31;10.38;;;5.13;;
22363;SDS011;11349;53.412;-1.328;2022-11-20T05:21:56;10.30;;;5.18;;
22363;SDS011;11349;53.412;-1.328;2022-11-20T05:24:22;9.07;;;4.85;;
22363;SDS011;11349;53.412;-1.328;2022-11-20T05:26:48;7.75;;;4.85;;
22363;SDS011;11349;53.412;-1.328;2022-11-20T05:29:13;8.30;;;5.00;;
22363;SDS011;11349;53.412;-1.328;2022-11-20T05:31:39;13.48;;;5.25;;
22363;SDS011;11349;53.412;-1.328;2022-11-20T05:34:06;8.68;;;4.53;;
22363;SDS011;11349;53.412;-1.328;2022-11-20T05:36:32;11.40;;;4.95;;
22363;SDS011;11349;53.412;-1.328;2022-11-20T05:38:57;8.50;;;4.15;;
22363;SDS011;11349;53.412;-1.328;2022-11-20T05:41:23;8.35;;;4.32;;
22363;SDS011;11349;53.412;-1.328;2022-11-20T05:43:49;7.93;;;4.15;;
22363;SDS011;11349;53.412;-1.328;2022-11-20T05:46:17;7.63;;;3.78;;
22363;SDS011;11349;53.412;-1.328;2022-11-20T05:48:44;9.25;;;4.03;;
22363;SDS011;11349;53.412;-1.328;2022-11-20T05:51:12;8.48;;;3.78;;
22363;SDS011;11349;53.412;-1.328;2022-11-20T05:53:40;6.88;;;3.90;;
22363;SDS011;11349;53.412;-1.328;2022-11-20T05:56:06;6.47;;;3.08;;
22363;SDS011;11349;53.412;-1.328;2022-11-20T05:58:37;7.45;;;3.58;;
22363;SDS011;11349;53.412;-1.328;2022-11-20T06:01:05;5.32;;;2.90;;
22363;SDS011;11349;53.412;-1.328;2022-11-20T06:03:35;5.95;;;2.67;;
22363;SDS011;11349;53.412;-1.328;2022-11-20T06:06:02;6.40;;;3.00;;
22363;SDS011;11349;53.412;-1.328;2022-11-20T06:08:32;5.10;;;2.53;;
22363;SDS011;11349;53.412;-1.328;2022-11-20T06:10:57;5.60;;;2.80;;
22363;SDS011;11349;53.412;-1.328;2022-11-20T06:13:23;7.30;;;2.83;;
22363;SDS011;11349;53.412;-1.328;2022-11-20T06:15:50;5.38;;;2.40;;
22363;SDS011;11349;53.412;-1.328;2022-11-20T06:18:19;4.82;;;2.63;;
22363;SDS011;11349;53.412;-1.328;2022-11-20T06:20:45;4.50;;;2.20;;
22363;SDS011;11349;53.412;-1.328;2022-11-20T06:23:11;3.45;;;2.10;;
22363;SDS011;11349;53.412;-1.328;2022-11-20T06:25:38;4.10;;;2.35;;
22363;SDS011;11349;53.412;-1.328;2022-11-20T06:28:05;4.70;;;2.83;;
22363;SDS011;11349;53.412;-1.328;2022-11-20T06:30:31;4.85;;;2.60;;
22363;SDS011;11349;53.412;-1.328;2022-11-20T06:32:57;3.78;;;2.08;;
22363;SDS011;11349;53.412;-1.328;2022-11-20T06:35:22;5.10;;;2.25;;
22363;SDS011;11349;53.412;-1.328;2022-11-20T06:37:48;3.75;;;2.40;;
22363;SDS011;11349;53.412;-1.328;2022-11-20T06:40:14;3.20;;;2.00;;
22363;SDS011;11349;53.412;-1.328;2022-11-20T06:42:39;5.43;;;2.53;;
22363;SDS011;11349;53.412;-1.328;2022-11-20T06:45:05;4.97;;;2.30;;
22363;SDS011;11349;53.412;-1.328;2022-11-20T06:47:32;2.90;;;1.70;;
22363;SDS011;11349;53.412;-1.328;2022-11-20T06:49:58;3.50;;;1.95;;
22363;SDS011;11349;53.412;-1.328;2022-11-20T06:52:24;3.13;;;1.85;;
22363;SDS011;11349;53.412;-1.328;2022-11-20T06:54:50;2.47;;;1.75;;
22363;SDS011;11349;53.412;-1.328;2022-11-20T06:57:15;3.58;;;1.88;;
22363;SDS011;11349;53.412;-1.328;2022-11-20T06:59:41;3.35;;;2.22;;
22363;SDS011;11349;53.412;-1.328;2022-11-20T07:02:13;4.35;;;2.33;;
22363;SDS011;11349;53.412;-1.328;2022-11-20T07:04:38;5.57;;;3.78;;
22363;SDS011;11349;53.412;-1.328;2022-11-20T07:07:04;4.45;;;2.50;;
22363;SDS011;11349;53.412;-1.328;2022-11-20T07:09:31;4.65;;;2.80;;
22363;SDS011;11349;53.412;-1.328;2022-11-20T07:11:57;4.50;;;2.72;;
22363;SDS011;11349;53.412;-1.328;2022-11-20T07:14:23;5.05;;;3.28;;
22363;SDS011;11349;53.412;-1.328;2022-11-20T07:16:48;7.60;;;3.40;;
22363;SDS011;11349;53.412;-1.328;2022-11-20T07:19:14;5.45;;;3.22;;
22363;SDS011;11349;53.412;-1.328;2022-11-20T07:21:40;4.55;;;2.90;;
22363;SDS011;11349;53.412;-1.328;2022-11-20T07:24:06;4.20;;;2.70;;
22363;SDS011;11349;53.412;-1.328;2022-11-20T07:26:32;5.60;;;3.00;;
22363;SDS011;11349;53.412;-1.328;2022-11-20T07:28:57;6.00;;;3.03;;
22363;SDS011;11349;53.412;-1.328;2022-11-20T07:31:23;4.82;;;3.17;;
22363;SDS011;11349;53.412;-1.328;2022-11-20T07:33:49;3.75;;;2.80;;
22363;SDS011;11349;53.412;-1.328;2022-11-20T07:36:15;5.28;;;3.40;;
22363;SDS011;11349;53.412;-1.328;2022-11-20T07:38:40;7.07;;;3.70;;
22363;SDS011;11349;53.412;-1.328;2022-11-20T07:41:06;4.55;;;3.10;;
22363;SDS011;11349;53.412;-1.328;2022-11-20T07:43:32;4.38;;;2.85;;
22363;SDS011;11349;53.412;-1.328;2022-11-20T07:45:58;5.15;;;2.95;;
22363;SDS011;11349;53.412;-1.328;2022-11-20T07:48:24;5.80;;;2.95;;
22363;SDS011;11349;53.412;-1.328;2022-11-20T07:50:54;6.68;;;3.20;;
22363;SDS011;11349;53.412;-1.328;2022-11-20T07:53:20;4.05;;;2.55;;
22363;SDS011;11349;53.412;-1.328;2022-11-20T07:55:46;2.80;;;1.77;;
22363;SDS011;11349;53.412;-1.328;2022-11-20T07:58:13;5.38;;;2.42;;
22363;SDS011;11349;53.412;-1.328;2022-11-20T08:00:39;6.88;;;2.60;;
22363;SDS011;11349;53.412;-1.328;2022-11-20T08:03:06;5.18;;;2.72;;
22363;SDS011;11349;53.412;-1.328;2022-11-20T08:05:32;6.00;;;2.67;;
22363;SDS011;11349;53.412;-1.328;2022-11-20T08:07:58;9.82;;;2.78;;
22363;SDS011;11349;53.412;-1.328;2022-11-20T08:10:26;6.18;;;2.63;;
22363;SDS011;11349;53.412;-1.328;2022-11-20T08:12:52;8.70;;;3.00;;
22363;SDS011;11349;53.412;-1.328;2022-11-20T08:15:37;8.00;;;3.55;;
22363;SDS011;11349;53.412;-1.328;2022-11-20T08:18:05;7.18;;;3.40;;
22363;SDS011;11349;53.412;-1.328;2022-11-20T08:20:32;8.75;;;3.20;;
22363;SDS011;11349;53.412;-1.328;2022-11-20T08:23:00;7.20;;;3.13;;
22363;SDS011;11349;53.412;-1.328;2022-11-20T08:25:27;6.97;;;3.70;;
22363;SDS011;11349;53.412;-1.328;2022-11-20T08:27:59;7.38;;;3.20;;
22363;SDS011;11349;53.412;-1.328;2022-11-20T08:30:25;11.65;;;2.92;;
22363;SDS011;11349;53.412;-1.328;2022-11-20T08:32:51;12.80;;;4.07;;
22363;SDS011;11349;53.412;-1.328;2022-11-20T08:35:18;11.27;;;3.28;;
22363;SDS011;11349;53.412;-1.328;2022-11-20T08:37:47;9.35;;;2.72;;
22363;SDS011;11349;53.412;-1.328;2022-11-20T08:40:13;12.65;;;3.90;;
22363;SDS011;11349;53.412;-1.328;2022-11-20T08:42:48;12.60;;;3.42;;
22363;SDS011;11349;53.412;-1.328;2022-11-20T08:45:15;13.32;;;3.33;;
22363;SDS011;11349;53.412;-1.328;2022-11-20T08:47:42;8.65;;;3.13;;
22363;SDS011;11349;53.412;-1.328;2022-11-20T08:50:12;15.75;;;3.65;;
22363;SDS011;11349;53.412;-1.328;2022-11-20T08:52:38;10.23;;;3.72;;
22363;SDS011;11349;53.412;-1.328;2022-11-20T08:55:04;8.07;;;2.92;;
22363;SDS011;11349;53.412;-1.328;2022-11-20T08:57:34;8.18;;;2.88;;
22363;SDS011;11349;53.412;-1.328;2022-11-20T09:00:03;11.18;;;3.15;;
22363;SDS011;11349;53.412;-1.328;2022-11-20T09:02:30;13.50;;;3.83;;
22363;SDS011;11349;53.412;-1.328;2022-11-20T09:04:57;14.02;;;3.38;;
22363;SDS011;11349;53.412;-1.328;2022-11-20T09:07:23;15.90;;;3.60;;
22363;SDS011;11349;53.412;-1.328;2022-11-20T09:09:48;13.43;;;3.70;;
22363;SDS011;11349;53.412;-1.328;2022-11-20T09:12:14;8.63;;;3.15;;
22363;SDS011;11349;53.412;-1.328;2022-11-20T09:14:40;12.02;;;2.90;;
22363;SDS011;11349;53.412;-1.328;2022-11-20T09:17:06;12.55;;;2.60;;
22363;SDS011;11349;53.412;-1.328;2022-11-20T09:19:32;7.97;;;2.85;;
22363;SDS011;11349;53.412;-1.328;2022-11-20T09:21:59;10.23;;;2.40;;
22363;SDS011;11349;53.412;-1.328;2022-11-20T09:24:25;9.02;;;2.20;;
22363;SDS011;11349;53.412;-1.328;2022-11-20T09:26:51;8.30;;;2.10;;
22363;SDS011;11349;53.412;-1.328;2022-11-20T09:29:17;9.25;;;2.45;;
22363;SDS011;11349;53.412;-1.328;2022-11-20T09:31:43;7.55;;;2.25;;
22363;SDS011;11349;53.412;-1.328;2022-11-20T09:34:09;10.50;;;2.58;;
22363;SDS011;11349;53.412;-1.328;2022-11-20T09:36:35;15.20;;;3.97;;
22363;SDS011;11349;53.412;-1.328;2022-11-20T09:39:03;11.07;;;2.67;;
22363;SDS011;11349;53.412;-1.328;2022-11-20T09:53:03;16.08;;;5.03;;
22363;SDS011;11349;53.412;-1.328;2022-11-20T09:55:52;10.20;;;3.92;;
22363;SDS011;11349;53.412;-1.328;2022-11-20T09:58:41;15.90;;;5.47;;
22363;SDS011;11349;53.412;-1.328;2022-11-20T10:01:11;15.50;;;4.32;;
22363;SDS011;11349;53.412;-1.328;2022-11-20T10:04:01;17.55;;;4.07;;
22363;SDS011;11349;53.412;-1.328;2022-11-20T10:06:36;13.57;;;3.55;;
22363;SDS011;11349;53.412;-1.328;2022-11-20T10:09:28;19.35;;;3.83;;
22363;SDS011;11349;53.412;-1.328;2022-11-20T10:25:39;17.05;;;5.53;;
22363;SDS011;11349;53.412;-1.328;2022-11-20T10:28:34;13.38;;;4.72;;
22363;SDS011;11349;53.412;-1.328;2022-11-20T10:31:03;19.40;;;5.20;;
22363;SDS011;11349;53.412;-1.328;2022-11-20T10:33:39;13.00;;;4.80;;
22363;SDS011;11349;53.412;-1.328;2022-11-20T10:38:40;16.27;;;5.22;;
22363;SDS011;11349;53.412;-1.328;2022-11-20T10:41:44;28.85;;;5.43;;
22363;SDS011;11349;53.412;-1.328;2022-11-20T10:44:14;18.90;;;5.97;;
22363;SDS011;11349;53.412;-1.328;2022-11-20T10:47:04;19.40;;;6.85;;
22363;SDS011;11349;53.412;-1.328;2022-11-20T10:49:35;18.55;;;5.82;;
22363;SDS011;11349;53.412;-1.328;2022-11-20T11:00:24;18.38;;;4.07;;
22363;SDS011;11349;53.412;-1.328;2022-11-20T11:02:50;13.52;;;4.47;;
22363;SDS011;11349;53.412;-1.328;2022-11-20T11:07:59;15.82;;;3.25;;
22363;SDS011;11349;53.412;-1.328;2022-11-20T11:10:36;19.55;;;4.20;;
22363;SDS011;11349;53.412;-1.328;2022-11-20T11:13:07;13.32;;;2.80;;
22363;SDS011;11349;53.412;-1.328;2022-11-20T11:15:48;9.85;;;2.63;;
22363;SDS011;11349;53.412;-1.328;2022-11-20T11:18:22;11.38;;;2.45;;
22363;SDS011;11349;53.412;-1.328;2022-11-20T11:20:53;16.02;;;3.15;;
22363;SDS011;11349;53.412;-1.328;2022-11-20T11:23:41;13.82;;;3.55;;
22363;SDS011;11349;53.412;-1.328;2022-11-20T11:26:23;15.80;;;2.92;;
22363;SDS011;11349;53.412;-1.328;2022-11-20T11:28:56;14.88;;;3.35;;
22363;SDS011;11349;53.412;-1.328;2022-11-20T11:31:31;13.35;;;3.88;;
22363;SDS011;11349;53.412;-1.328;2022-11-20T11:34:05;12.50;;;3.00;;
22363;SDS011;11349;53.412;-1.328;2022-11-20T11:36:38;16.20;;;3.47;;
22363;SDS011;11349;53.412;-1.328;2022-11-20T11:39:06;13.68;;;3.75;;
22363;SDS011;11349;53.412;-1.328;2022-11-20T11:41:39;13.38;;;3.22;;
22363;SDS011;11349;53.412;-1.328;2022-11-20T11:44:21;17.38;;;2.90;;
22363;SDS011;11349;53.412;-1.328;2022-11-20T11:47:32;15.05;;;2.97;;
22363;SDS011;11349;53.412;-1.328;2022-11-20T11:57:54;17.55;;;2.90;;
22363;SDS011;11349;53.412;-1.328;2022-11-20T12:00:27;13.45;;;2.90;;
22363;SDS011;11349;53.412;-1.328;2022-11-20T12:05:45;23.17;;;3.63;;
22363;SDS011;11349;53.412;-1.328;2022-11-20T12:13:43;14.70;;;3.40;;
22363;SDS011;11349;53.412;-1.328;2022-11-20T12:16:35;21.95;;;3.63;;
22363;SDS011;11349;53.412;-1.328;2022-11-20T12:19:03;18.05;;;3.15;;
22363;SDS011;11349;53.412;-1.328;2022-11-20T12:27:16;12.20;;;2.65;;
22363;SDS011;11349;53.412;-1.328;2022-11-20T12:30:11;13.98;;;3.97;;
22363;SDS011;11349;53.412;-1.328;2022-11-20T12:32:48;13.15;;;2.53;;
22363;SDS011;11349;53.412;-1.328;2022-11-20T12:53:33;17.83;;;2.83;;
22363;SDS011;11349;53.412;-1.328;2022-11-20T13:01:52;16.83;;;3.60;;
22363;SDS011;11349;53.412;-1.328;2022-11-20T13:07:08;11.98;;;3.30;;
22363;SDS011;11349;53.412;-1.328;2022-11-20T13:09:42;15.05;;;2.60;;
22363;SDS011;11349;53.412;-1.328;2022-11-20T13:12:13;10.20;;;2.90;;
22363;SDS011;11349;53.412;-1.328;2022-11-20T13:18:00;9.75;;;3.40;;
22363;SDS011;11349;53.412;-1.328;2022-11-20T13:20:27;13.48;;;3.33;;
22363;SDS011;11349;53.412;-1.328;2022-11-20T13:22:56;15.23;;;3.30;;
22363;SDS011;11349;53.412;-1.328;2022-11-20T13:25:28;23.10;;;4.53;;
22363;SDS011;11349;53.412;-1.328;2022-11-20T13:30:34;17.10;;;3.70;;
22363;SDS011;11349;53.412;-1.328;2022-11-20T13:33:08;17.45;;;5.22;;
22363;SDS011;11349;53.412;-1.328;2022-11-20T13:35:57;13.70;;;3.42;;
22363;SDS011;11349;53.412;-1.328;2022-11-20T13:38:44;24.63;;;4.05;;
22363;SDS011;11349;53.412;-1.328;2022-11-20T13:41:22;17.20;;;3.50;;
22363;SDS011;11349;53.412;-1.328;2022-11-20T13:47:03;14.40;;;3.90;;
22363;SDS011;11349;53.412;-1.328;2022-11-20T13:49:42;14.73;;;3.33;;
22363;SDS011;11349;53.412;-1.328;2022-11-20T13:57:39;18.88;;;3.58;;
22363;SDS011;11349;53.412;-1.328;2022-11-20T14:00:26;18.08;;;3.70;;
22363;SDS011;11349;53.412;-1.328;2022-11-20T14:05:50;15.73;;;3.10;;
22363;SDS011;11349;53.412;-1.328;2022-11-20T14:08:27;17.38;;;4.20;;
22363;SDS011;11349;53.412;-1.328;2022-11-20T14:11:05;17.02;;;4.90;;
22363;SDS011;11349;53.412;-1.328;2022-11-20T14:16:24;15.10;;;4.07;;
22363;SDS011;11349;53.412;-1.328;2022-11-20T14:18:52;13.27;;;2.75;;
22363;SDS011;11349;53.412;-1.328;2022-11-20T14:21:21;13.20;;;3.33;;
22363;SDS011;11349;53.412;-1.328;2022-11-20T14:24:27;17.25;;;2.90;;
22363;SDS011;11349;53.412;-1.328;2022-11-20T14:26:47;17.95;;;3.95;;
22363;SDS011;11349;53.412;-1.328;2022-11-20T14:31:46;14.85;;;2.95;;
22363;SDS011;11349;53.412;-1.328;2022-11-20T14:34:20;12.45;;;3.60;;
22363;SDS011;11349;53.412;-1.328;2022-11-20T14:36:48;13.85;;;2.78;;
22363;SDS011;11349;53.412;-1.328;2022-11-20T14:39:22;14.02;;;2.90;;
22363;SDS011;11349;53.412;-1.328;2022-11-20T14:41:55;16.25;;;3.08;;
22363;SDS011;11349;53.412;-1.328;2022-11-20T14:44:26;15.90;;;2.80;;
22363;SDS011;11349;53.412;-1.328;2022-11-20T14:46:59;12.40;;;2.80;;
22363;SDS011;11349;53.412;-1.328;2022-11-20T14:49:28;12.95;;;2.95;;
22363;SDS011;11349;53.412;-1.328;2022-11-20T14:52:00;17.23;;;3.45;;
22363;SDS011;11349;53.412;-1.328;2022-11-20T14:54:27;16.30;;;3.67;;
22363;SDS011;11349;53.412;-1.328;2022-11-20T14:59:31;14.55;;;3.35;;
22363;SDS011;11349;53.412;-1.328;2022-11-20T15:04:26;15.57;;;3.00;;
22363;SDS011;11349;53.412;-1.328;2022-11-20T15:06:53;18.00;;;3.10;;
22363;SDS011;11349;53.412;-1.328;2022-11-20T15:09:21;13.65;;;2.95;;
22363;SDS011;11349;53.412;-1.328;2022-11-20T15:12:05;18.10;;;3.95;;
22363;SDS011;11349;53.412;-1.328;2022-11-20T15:14:31;16.65;;;3.03;;
22363;SDS011;11349;53.412;-1.328;2022-11-20T15:16:59;15.20;;;3.97;;
22363;SDS011;11349;53.412;-1.328;2022-11-20T15:19:25;14.65;;;3.47;;
22363;SDS011;11349;53.412;-1.328;2022-11-20T15:21:52;13.23;;;3.13;;
22363;SDS011;11349;53.412;-1.328;2022-11-20T15:24:18;15.95;;;3.70;;
22363;SDS011;11349;53.412;-1.328;2022-11-20T15:26:44;12.15;;;3.20;;
22363;SDS011;11349;53.412;-1.328;2022-11-20T15:29:11;20.70;;;3.97;;
22363;SDS011;11349;53.412;-1.328;2022-11-20T15:31:39;22.88;;;6.65;;
22363;SDS011;11349;53.412;-1.328;2022-11-20T15:34:13;18.73;;;4.53;;
22363;SDS011;11349;53.412;-1.328;2022-11-20T15:36:40;21.83;;;7.03;;
22363;SDS011;11349;53.412;-1.328;2022-11-20T15:39:07;18.10;;;5.13;;
22363;SDS011;11349;53.412;-1.328;2022-11-20T15:41:34;17.55;;;4.03;;
22363;SDS011;11349;53.412;-1.328;2022-11-20T15:44:01;12.10;;;3.50;;
22363;SDS011;11349;53.412;-1.328;2022-11-20T15:46:28;15.13;;;4.15;;
22363;SDS011;11349;53.412;-1.328;2022-11-20T15:48:58;15.75;;;4.30;;
22363;SDS011;11349;53.412;-1.328;2022-11-20T15:51:31;13.45;;;3.63;;
22363;SDS011;11349;53.412;-1.328;2022-11-20T15:53:59;15.98;;;4.13;;
22363;SDS011;11349;53.412;-1.328;2022-11-20T15:56:27;12.93;;;3.63;;
22363;SDS011;11349;53.412;-1.328;2022-11-20T15:58:52;15.50;;;3.45;;
22363;SDS011;11349;53.412;-1.328;2022-11-20T16:01:19;17.98;;;3.72;;
22363;SDS011;11349;53.412;-1.328;2022-11-20T16:03:46;16.52;;;4.10;;
22363;SDS011;11349;53.412;-1.328;2022-11-20T16:06:12;13.57;;;4.70;;
22363;SDS011;11349;53.412;-1.328;2022-11-20T16:08:38;14.60;;;4.03;;
22363;SDS011;11349;53.412;-1.328;2022-11-20T16:11:04;11.68;;;3.50;;
22363;SDS011;11349;53.412;-1.328;2022-11-20T16:13:31;10.65;;;2.70;;
22363;SDS011;11349;53.412;-1.328;2022-11-20T16:16:19;9.70;;;2.90;;
22363;SDS011;11349;53.412;-1.328;2022-11-20T16:18:47;3.47;;;1.00;;
22363;SDS011;11349;53.412;-1.328;2022-11-20T16:21:14;3.72;;;1.27;;
22363;SDS011;11349;53.412;-1.328;2022-11-20T16:23:40;6.20;;;1.27;;
22363;SDS011;11349;53.412;-1.328;2022-11-20T16:26:14;1.33;;;0.60;;
22363;SDS011;11349;53.412;-1.328;2022-11-20T16:28:45;2.65;;;0.80;;
22363;SDS011;11349;53.412;-1.328;2022-11-20T16:31:15;3.63;;;0.95;;
22363;SDS011;11349;53.412;-1.328;2022-11-20T16:33:48;3.30;;;1.08;;
22363;SDS011;11349;53.412;-1.328;2022-11-20T16:36:14;3.40;;;1.52;;
22363;SDS011;11349;53.412;-1.328;2022-11-20T16:38:41;2.45;;;1.02;;
22363;SDS011;11349;53.412;-1.328;2022-11-20T16:41:07;1.38;;;0.70;;